sensor_id;sensor_type;location;lat;lon;timestamp;pressure;altitude;pressure_sealevel;temperature;humidity
14882;BME280;7533;51.278;12.588;2023-04-09T00:04:55;101105.22;;;23.60;56.30
14882;BME280;7533;51.278;12.588;2023-04-09T00:09:58;101111.63;;;23.59;56.49
14882;BME280;7533;51.278;12.588;2023-04-09T00:15:02;101100.53;;;23.49;56.62
14882;BME280;7533;51.278;12.588;2023-04-09T00:20:06;101108.75;;;23.48;56.84
14882;BME280;7533;51.278;12.588;2023-04-09T00:25:09;101104.59;;;23.42;56.86
14882;BME280;7533;51.278;12.588;2023-04-09T00:30:13;101099.88;;;23.46;56.82
14882;BME280;7533;51.278;12.588;2023-04-09T00:35:16;101118.00;;;23.44;56.92
14882;BME280;7533;51.278;12.588;2023-04-09T00:40:19;101112.59;;;23.44;56.97
14882;BME280;7533;51.278;12.588;2023-04-09T00:45:23;101113.97;;;23.37;57.02
14882;BME280;7533;51.278;12.588;2023-04-09T00:50:26;101109.53;;;23.36;57.10
14882;BME280;7533;51.278;12.588;2023-04-09T00:55:29;101116.84;;;23.34;57.23
14882;BME280;7533;51.278;12.588;2023-04-09T01:00:34;101112.53;;;23.31;57.32
14882;BME280;7533;51.278;12.588;2023-04-09T01:05:42;101107.41;;;23.27;57.57
14882;BME280;7533;51.278;12.588;2023-04-09T01:10:54;101123.16;;;23.20;57.61
14882;BME280;7533;51.278;12.588;2023-04-09T01:16:02;101116.31;;;23.14;57.94
14882;BME280;7533;51.278;12.588;2023-04-09T01:21:10;101121.31;;;23.06;58.01
14882;BME280;7533;51.278;12.588;2023-04-09T01:26:20;101120.16;;;22.96;58.22
14882;BME280;7533;51.278;12.588;2023-04-09T01:31:31;101110.63;;;22.90;58.44
14882;BME280;7533;51.278;12.588;2023-04-09T01:36:34;101123.00;;;22.79;58.82
14882;BME280;7533;51.278;12.588;2023-04-09T01:41:40;101117.91;;;22.74;59.00
14882;BME280;7533;51.278;12.588;2023-04-09T01:46:45;101120.88;;;22.69;59.23
14882;BME280;7533;51.278;12.588;2023-04-09T01:51:49;101121.41;;;22.60;59.58
14882;BME280;7533;51.278;12.588;2023-04-09T01:56:51;101116.22;;;22.57;59.81
14882;BME280;7533;51.278;12.588;2023-04-09T02:01:59;101112.94;;;22.52;59.97
14882;BME280;7533;51.278;12.588;2023-04-09T02:07:05;101105.88;;;22.50;60.06
14882;BME280;7533;51.278;12.588;2023-04-09T02:12:12;101110.78;;;22.43;60.19
14882;BME280;7533;51.278;12.588;2023-04-09T02:17:17;101115.53;;;22.39;60.29
14882;BME280;7533;51.278;12.588;2023-04-09T02:22:20;101121.94;;;22.37;60.39
14882;BME280;7533;51.278;12.588;2023-04-09T02:27:23;101117.88;;;22.30;60.73
14882;BME280;7533;51.278;12.588;2023-04-09T02:32:27;101111.78;;;22.26;60.94
14882;BME280;7533;51.278;12.588;2023-04-09T02:37:30;101117.38;;;22.23;60.80
14882;BME280;7533;51.278;12.588;2023-04-09T02:42:33;101126.72;;;22.17;61.05
14882;BME280;7533;51.278;12.588;2023-04-09T02:47:37;101124.19;;;22.14;61.19
14882;BME280;7533;51.278;12.588;2023-04-09T02:52:40;101117.16;;;22.12;61.25
14882;BME280;7533;51.278;12.588;2023-04-09T02:57:43;101122.69;;;22.09;61.47
14882;BME280;7533;51.278;12.588;2023-04-09T03:02:47;101124.00;;;22.02;61.52
14882;BME280;7533;51.278;12.588;2023-04-09T03:07:50;101124.00;;;22.02;61.75
14882;BME280;7533;51.278;12.588;2023-04-09T03:12:53;101122.44;;;21.98;61.92
14882;BME280;7533;51.278;12.588;2023-04-09T03:17:57;101119.84;;;21.96;62.03
14882;BME280;7533;51.278;12.588;2023-04-09T03:23:00;101127.13;;;21.94;62.35
14882;BME280;7533;51.278;12.588;2023-04-09T03:28:08;101133.75;;;21.88;62.23
14882;BME280;7533;51.278;12.588;2023-04-09T03:33:17;101124.13;;;21.84;62.43
14882;BME280;7533;51.278;12.588;2023-04-09T03:38:25;101129.66;;;21.81;62.39
14882;BME280;7533;51.278;12.588;2023-04-09T03:43:29;101120.97;;;21.76;62.67
14882;BME280;7533;51.278;12.588;2023-04-09T03:48:33;101125.50;;;21.76;62.52
14882;BME280;7533;51.278;12.588;2023-04-09T03:53:37;101123.06;;;21.71;62.49
14882;BME280;7533;51.278;12.588;2023-04-09T03:58:41;101134.91;;;21.69;62.68
14882;BME280;7533;51.278;12.588;2023-04-09T04:03:47;101127.78;;;21.68;62.76
14882;BME280;7533;51.278;12.588;2023-04-09T04:08:59;101129.75;;;21.64;62.74
14882;BME280;7533;51.278;12.588;2023-04-09T04:14:12;101132.56;;;21.62;62.84
14882;BME280;7533;51.278;12.588;2023-04-09T04:19:20;101124.72;;;21.58;62.84
14882;BME280;7533;51.278;12.588;2023-04-09T04:24:25;101135.59;;;21.56;63.05
14882;BME280;7533;51.278;12.588;2023-04-09T04:29:28;101133.94;;;21.54;63.05
14882;BME280;7533;51.278;12.588;2023-04-09T04:34:35;101141.34;;;21.50;63.25
14882;BME280;7533;51.278;12.588;2023-04-09T04:39:53;101143.84;;;21.53;63.33
14882;BME280;7533;51.278;12.588;2023-04-09T04:44:56;101136.09;;;21.47;63.51
14882;BME280;7533;51.278;12.588;2023-04-09T04:50:12;101141.59;;;21.46;63.31
14882;BME280;7533;51.278;12.588;2023-04-09T04:55:28;101148.94;;;21.42;63.00
14882;BME280;7533;51.278;12.588;2023-04-09T05:00:34;101144.69;;;21.38;62.68
14882;BME280;7533;51.278;12.588;2023-04-09T05:05:38;101150.06;;;21.38;62.33
14882;BME280;7533;51.278;12.588;2023-04-09T05:10:42;101150.16;;;21.36;62.14
14882;BME280;7533;51.278;12.588;2023-04-09T05:15:46;101158.34;;;21.35;62.04
14882;BME280;7533;51.278;12.588;2023-04-09T05:20:51;101159.19;;;21.35;61.87
14882;BME280;7533;51.278;12.588;2023-04-09T05:25:54;101163.81;;;21.33;61.79
14882;BME280;7533;51.278;12.588;2023-04-09T05:31:20;101166.41;;;21.35;61.80
14882;BME280;7533;51.278;12.588;2023-04-09T05:36:35;101168.25;;;21.34;61.85
14882;BME280;7533;51.278;12.588;2023-04-09T05:41:38;101179.00;;;21.34;61.82
14882;BME280;7533;51.278;12.588;2023-04-09T05:47:00;101176.47;;;21.31;61.81
14882;BME280;7533;51.278;12.588;2023-04-09T05:52:11;101184.56;;;21.31;61.81
14882;BME280;7533;51.278;12.588;2023-04-09T05:57:15;101168.47;;;21.30;61.65
14882;BME280;7533;51.278;12.588;2023-04-09T06:02:25;101172.91;;;21.31;61.60
14882;BME280;7533;51.278;12.588;2023-04-09T06:07:29;101171.19;;;21.30;61.56
14882;BME280;7533;51.278;12.588;2023-04-09T06:12:33;101170.22;;;21.31;61.59
14882;BME280;7533;51.278;12.588;2023-04-09T06:17:37;101173.00;;;21.29;61.69
14882;BME280;7533;51.278;12.588;2023-04-09T06:22:41;101168.53;;;21.28;61.82
14882;BME280;7533;51.278;12.588;2023-04-09T06:27:44;101173.94;;;21.28;61.50
14882;BME280;7533;51.278;12.588;2023-04-09T06:32:47;101191.84;;;21.29;61.64
14882;BME280;7533;51.278;12.588;2023-04-09T06:37:57;101190.09;;;21.28;61.46
14882;BME280;7533;51.278;12.588;2023-04-09T06:43:00;101190.16;;;21.27;61.46
14882;BME280;7533;51.278;12.588;2023-04-09T06:48:10;101196.44;;;21.27;61.71
14882;BME280;7533;51.278;12.588;2023-04-09T06:53:14;101201.81;;;21.27;61.76
14882;BME280;7533;51.278;12.588;2023-04-09T06:58:18;101209.00;;;21.27;61.96
14882;BME280;7533;51.278;12.588;2023-04-09T07:03:21;101208.94;;;21.28;60.56
14882;BME280;7533;51.278;12.588;2023-04-09T07:08:26;101227.22;;;19.00;49.74
14882;BME280;7533;51.278;12.588;2023-04-09T07:13:29;101231.16;;;17.83;50.56
14882;BME280;7533;51.278;12.588;2023-04-09T07:18:33;101223.31;;;19.86;51.29
14882;BME280;7533;51.278;12.588;2023-04-09T07:23:37;101220.22;;;20.50;51.67
14882;BME280;7533;51.278;12.588;2023-04-09T07:28:40;101221.41;;;20.79;52.21
14882;BME280;7533;51.278;12.588;2023-04-09T07:33:43;101216.81;;;20.98;52.66
14882;BME280;7533;51.278;12.588;2023-04-09T07:38:47;101216.97;;;21.12;53.18
14882;BME280;7533;51.278;12.588;2023-04-09T07:43:50;101217.97;;;21.27;53.32
14882;BME280;7533;51.278;12.588;2023-04-09T07:48:53;101219.16;;;21.39;53.86
14882;BME280;7533;51.278;12.588;2023-04-09T07:53:57;101217.00;;;21.46;53.86
14882;BME280;7533;51.278;12.588;2023-04-09T07:59:00;101217.53;;;21.52;54.08
14882;BME280;7533;51.278;12.588;2023-04-09T08:04:04;101211.81;;;21.58;54.50
14882;BME280;7533;51.278;12.588;2023-04-09T08:09:08;101225.78;;;21.65;54.59
14882;BME280;7533;51.278;12.588;2023-04-09T08:14:11;101218.44;;;21.69;54.56
14882;BME280;7533;51.278;12.588;2023-04-09T08:19:15;101219.91;;;21.74;54.70
14882;BME280;7533;51.278;12.588;2023-04-09T08:24:19;101214.19;;;21.80;54.72
14882;BME280;7533;51.278;12.588;2023-04-09T08:29:22;101213.06;;;21.84;55.00
14882;BME280;7533;51.278;12.588;2023-04-09T08:34:25;101202.94;;;21.88;54.96
14882;BME280;7533;51.278;12.588;2023-04-09T08:39:29;101202.88;;;21.89;55.19
14882;BME280;7533;51.278;12.588;2023-04-09T08:44:32;101200.19;;;21.89;55.09
14882;BME280;7533;51.278;12.588;2023-04-09T08:49:35;101198.28;;;21.91;54.52
14882;BME280;7533;51.278;12.588;2023-04-09T08:54:39;101181.31;;;21.89;54.62
14882;BME280;7533;51.278;12.588;2023-04-09T08:59:42;101191.16;;;21.90;54.60
14882;BME280;7533;51.278;12.588;2023-04-09T09:04:47;101181.22;;;21.91;54.98
14882;BME280;7533;51.278;12.588;2023-04-09T09:09:52;101177.56;;;21.92;55.08
14882;BME280;7533;51.278;12.588;2023-04-09T09:14:56;101187.75;;;21.87;55.40
14882;BME280;7533;51.278;12.588;2023-04-09T09:20:11;101187.31;;;21.95;55.46
14882;BME280;7533;51.278;12.588;2023-04-09T09:25:22;101184.44;;;21.98;55.50
14882;BME280;7533;51.278;12.588;2023-04-09T09:30:26;101182.44;;;22.01;55.61
14882;BME280;7533;51.278;12.588;2023-04-09T09:35:29;101176.34;;;21.98;55.71
14882;BME280;7533;51.278;12.588;2023-04-09T09:40:33;101170.00;;;21.99;55.84
14882;BME280;7533;51.278;12.588;2023-04-09T09:45:36;101173.56;;;21.99;55.83
14882;BME280;7533;51.278;12.588;2023-04-09T09:50:39;101171.66;;;22.01;55.74
14882;BME280;7533;51.278;12.588;2023-04-09T09:55:48;101168.09;;;22.01;55.63
14882;BME280;7533;51.278;12.588;2023-04-09T10:00:54;101165.31;;;22.02;55.55
14882;BME280;7533;51.278;12.588;2023-04-09T10:05:59;101164.69;;;21.97;55.60
14882;BME280;7533;51.278;12.588;2023-04-09T10:11:05;101159.91;;;22.02;55.37
14882;BME280;7533;51.278;12.588;2023-04-09T10:16:08;101150.78;;;22.05;55.62
14882;BME280;7533;51.278;12.588;2023-04-09T10:21:16;101148.88;;;22.07;55.34
14882;BME280;7533;51.278;12.588;2023-04-09T10:26:27;101148.78;;;22.08;55.30
14882;BME280;7533;51.278;12.588;2023-04-09T10:31:44;101149.75;;;22.07;55.34
14882;BME280;7533;51.278;12.588;2023-04-09T10:36:50;101145.94;;;22.11;55.32
14882;BME280;7533;51.278;12.588;2023-04-09T10:41:57;101141.31;;;22.13;55.53
14882;BME280;7533;51.278;12.588;2023-04-09T10:47:00;101144.63;;;22.18;55.71
14882;BME280;7533;51.278;12.588;2023-04-09T10:52:07;101142.44;;;22.25;55.75
14882;BME280;7533;51.278;12.588;2023-04-09T10:57:18;101131.53;;;22.27;56.01
14882;BME280;7533;51.278;12.588;2023-04-09T11:02:59;101133.38;;;22.26;56.05
14882;BME280;7533;51.278;12.588;2023-04-09T11:08:09;101129.78;;;20.82;50.51
14882;BME280;7533;51.278;12.588;2023-04-09T11:13:15;101128.78;;;20.14;49.76
14882;BME280;7533;51.278;12.588;2023-04-09T11:18:19;101144.81;;;19.22;49.96
14882;BME280;7533;51.278;12.588;2023-04-09T11:23:23;101122.50;;;20.67;49.32
14882;BME280;7533;51.278;12.588;2023-04-09T11:28:28;101112.16;;;21.25;49.25
14882;BME280;7533;51.278;12.588;2023-04-09T11:33:31;101121.63;;;21.50;49.71
14882;BME280;7533;51.278;12.588;2023-04-09T11:38:35;101114.13;;;21.71;49.89
14882;BME280;7533;51.278;12.588;2023-04-09T11:43:40;101103.59;;;21.82;50.15
14882;BME280;7533;51.278;12.588;2023-04-09T11:48:43;101108.25;;;21.94;50.31
14882;BME280;7533;51.278;12.588;2023-04-09T11:53:47;101108.09;;;21.97;50.41
14882;BME280;7533;51.278;12.588;2023-04-09T11:58:53;101106.97;;;22.01;50.49
14882;BME280;7533;51.278;12.588;2023-04-09T12:03:56;101116.59;;;22.05;50.67
14882;BME280;7533;51.278;12.588;2023-04-09T12:09:00;101115.41;;;22.11;50.81
14882;BME280;7533;51.278;12.588;2023-04-09T12:14:04;101107.13;;;22.14;50.87
14882;BME280;7533;51.278;12.588;2023-04-09T12:19:07;101110.34;;;22.21;50.93
14882;BME280;7533;51.278;12.588;2023-04-09T12:24:10;101115.34;;;22.27;50.88
14882;BME280;7533;51.278;12.588;2023-04-09T12:29:16;101107.09;;;22.30;50.88
14882;BME280;7533;51.278;12.588;2023-04-09T12:34:19;101102.56;;;22.30;51.04
14882;BME280;7533;51.278;12.588;2023-04-09T12:39:22;101106.13;;;22.31;51.00
14882;BME280;7533;51.278;12.588;2023-04-09T12:44:26;101096.97;;;22.33;51.40
14882;BME280;7533;51.278;12.588;2023-04-09T12:49:29;101088.81;;;22.35;51.14
14882;BME280;7533;51.278;12.588;2023-04-09T12:54:33;101080.53;;;22.38;51.06
14882;BME280;7533;51.278;12.588;2023-04-09T12:59:37;101081.31;;;22.40;51.10
14882;BME280;7533;51.278;12.588;2023-04-09T13:04:40;101077.66;;;22.41;51.11
14882;BME280;7533;51.278;12.588;2023-04-09T13:09:44;101068.75;;;22.39;51.04
14882;BME280;7533;51.278;12.588;2023-04-09T13:14:49;101071.47;;;22.39;51.37
14882;BME280;7533;51.278;12.588;2023-04-09T13:19:52;101064.69;;;22.62;51.28
14882;BME280;7533;51.278;12.588;2023-04-09T13:24:55;101069.38;;;22.58;51.61
14882;BME280;7533;51.278;12.588;2023-04-09T13:29:59;101065.63;;;22.61;51.66
14882;BME280;7533;51.278;12.588;2023-04-09T13:35:02;101056.50;;;22.63;51.56
14882;BME280;7533;51.278;12.588;2023-04-09T13:40:06;101047.72;;;22.74;51.64
14882;BME280;7533;51.278;12.588;2023-04-09T13:45:12;101047.25;;;22.67;51.23
14882;BME280;7533;51.278;12.588;2023-04-09T13:50:14;101040.94;;;22.67;51.02
14882;BME280;7533;51.278;12.588;2023-04-09T13:55:17;101038.06;;;22.70;50.84
14882;BME280;7533;51.278;12.588;2023-04-09T14:00:21;101035.75;;;22.64;50.19
14882;BME280;7533;51.278;12.588;2023-04-09T14:05:24;101029.00;;;22.71;50.42
14882;BME280;7533;51.278;12.588;2023-04-09T14:10:27;101035.09;;;22.75;50.23
14882;BME280;7533;51.278;12.588;2023-04-09T14:15:32;101023.44;;;22.74;49.81
14882;BME280;7533;51.278;12.588;2023-04-09T14:20:35;101019.00;;;22.73;50.10
14882;BME280;7533;51.278;12.588;2023-04-09T14:25:39;101015.34;;;22.74;49.98
14882;BME280;7533;51.278;12.588;2023-04-09T14:30:43;101016.22;;;22.75;49.64
14882;BME280;7533;51.278;12.588;2023-04-09T14:35:46;101016.31;;;23.02;49.96
14882;BME280;7533;51.278;12.588;2023-04-09T14:40:49;101003.75;;;22.86;50.03
14882;BME280;7533;51.278;12.588;2023-04-09T15:10:59;100986.03;;;23.38;48.25
14882;BME280;7533;51.278;12.588;2023-04-09T15:16:02;100984.00;;;22.86;48.94
14882;BME280;7533;51.278;12.588;2023-04-09T15:21:05;100980.72;;;22.95;48.65
14882;BME280;7533;51.278;12.588;2023-04-09T15:26:09;100977.31;;;23.06;48.90
14882;BME280;7533;51.278;12.588;2023-04-09T15:31:12;100983.91;;;23.02;48.40
14882;BME280;7533;51.278;12.588;2023-04-09T15:36:15;100970.59;;;23.13;48.50
14882;BME280;7533;51.278;12.588;2023-04-09T15:41:19;100972.19;;;23.15;48.07
14882;BME280;7533;51.278;12.588;2023-04-09T15:46:24;100975.66;;;23.17;48.03
14882;BME280;7533;51.278;12.588;2023-04-09T15:51:27;100976.59;;;23.31;47.72
14882;BME280;7533;51.278;12.588;2023-04-09T15:56:31;100974.88;;;23.30;47.85
14882;BME280;7533;51.278;12.588;2023-04-09T16:01:36;100979.56;;;23.40;47.30
14882;BME280;7533;51.278;12.588;2023-04-09T16:06:39;100979.19;;;23.32;46.98
14882;BME280;7533;51.278;12.588;2023-04-09T16:11:43;100990.56;;;23.37;46.88
14882;BME280;7533;51.278;12.588;2023-04-09T16:16:47;100983.72;;;23.32;46.95
14882;BME280;7533;51.278;12.588;2023-04-09T16:21:51;100991.00;;;23.44;46.42
14882;BME280;7533;51.278;12.588;2023-04-09T16:26:55;100994.16;;;23.50;46.22
14882;BME280;7533;51.278;12.588;2023-04-09T16:31:58;100996.88;;;23.50;46.10
14882;BME280;7533;51.278;12.588;2023-04-09T16:37:01;100988.13;;;23.47;46.08
14882;BME280;7533;51.278;12.588;2023-04-09T16:42:05;100991.00;;;23.44;46.04
14882;BME280;7533;51.278;12.588;2023-04-09T16:47:08;100989.47;;;23.40;45.74
14882;BME280;7533;51.278;12.588;2023-04-09T16:52:11;100987.75;;;23.39;45.66
14882;BME280;7533;51.278;12.588;2023-04-09T16:57:15;100981.78;;;23.34;45.79
14882;BME280;7533;51.278;12.588;2023-04-09T17:02:18;100988.28;;;23.31;45.90
14882;BME280;7533;51.278;12.588;2023-04-09T17:07:24;100984.84;;;23.15;46.56
14882;BME280;7533;51.278;12.588;2023-04-09T17:12:28;100993.78;;;23.30;46.55
14882;BME280;7533;51.278;12.588;2023-04-09T17:17:31;100994.06;;;23.25;46.65
14882;BME280;7533;51.278;12.588;2023-04-09T17:22:35;100995.06;;;23.24;46.50
14882;BME280;7533;51.278;12.588;2023-04-09T17:27:40;100999.19;;;23.30;46.47
14882;BME280;7533;51.278;12.588;2023-04-09T17:32:44;100993.84;;;23.28;47.38
14882;BME280;7533;51.278;12.588;2023-04-09T17:37:48;100998.50;;;23.26;47.78
14882;BME280;7533;51.278;12.588;2023-04-09T17:42:53;100998.50;;;23.26;47.98
14882;BME280;7533;51.278;12.588;2023-04-09T17:47:56;100996.88;;;23.23;48.06
14882;BME280;7533;51.278;12.588;2023-04-09T17:52:59;101007.13;;;23.18;48.40
14882;BME280;7533;51.278;12.588;2023-04-09T17:58:03;101007.59;;;23.11;48.42
14882;BME280;7533;51.278;12.588;2023-04-09T18:03:06;101008.88;;;23.05;48.77
14882;BME280;7533;51.278;12.588;2023-04-09T18:08:09;101005.19;;;23.06;49.07
14882;BME280;7533;51.278;12.588;2023-04-09T18:13:14;101005.31;;;23.05;49.37
14882;BME280;7533;51.278;12.588;2023-04-09T18:18:17;101012.53;;;23.04;49.40
14882;BME280;7533;51.278;12.588;2023-04-09T18:23:19;101014.72;;;23.12;49.54
14882;BME280;7533;51.278;12.588;2023-04-09T18:28:24;101021.13;;;22.96;49.86
14882;BME280;7533;51.278;12.588;2023-04-09T18:33:26;101021.00;;;22.84;50.10
14882;BME280;7533;51.278;12.588;2023-04-09T18:38:29;101028.16;;;22.85;50.12
14882;BME280;7533;51.278;12.588;2023-04-09T18:43:34;101032.41;;;22.75;50.26
14882;BME280;7533;51.278;12.588;2023-04-09T18:48:36;101039.03;;;22.69;50.57
14882;BME280;7533;51.278;12.588;2023-04-09T18:53:39;101031.91;;;22.68;50.62
14882;BME280;7533;51.278;12.588;2023-04-09T18:58:44;101033.53;;;22.70;50.76
14882;BME280;7533;51.278;12.588;2023-04-09T19:03:46;101035.66;;;22.65;50.84
14882;BME280;7533;51.278;12.588;2023-04-09T19:08:50;101038.06;;;22.70;50.78
14882;BME280;7533;51.278;12.588;2023-04-09T19:13:59;101040.19;;;22.65;50.94
14882;BME280;7533;51.278;12.588;2023-04-09T19:19:02;101040.88;;;22.68;50.81
14882;BME280;7533;51.278;12.588;2023-04-09T19:24:05;101038.19;;;22.97;50.45
14882;BME280;7533;51.278;12.588;2023-04-09T19:29:09;101043.31;;;23.02;50.41
14882;BME280;7533;51.278;12.588;2023-04-09T19:34:12;101048.53;;;22.90;50.49
14882;BME280;7533;51.278;12.588;2023-04-09T19:39:16;101047.13;;;22.83;50.69
14882;BME280;7533;51.278;12.588;2023-04-09T19:44:21;101044.25;;;22.86;50.79
14882;BME280;7533;51.278;12.588;2023-04-09T19:49:24;101037.91;;;22.87;50.74
14882;BME280;7533;51.278;12.588;2023-04-09T19:54:27;101029.09;;;22.84;50.83
14882;BME280;7533;51.278;12.588;2023-04-09T19:59:31;101017.19;;;22.88;50.86
14882;BME280;7533;51.278;12.588;2023-04-09T20:04:36;101023.16;;;22.93;50.84
14882;BME280;7533;51.278;12.588;2023-04-09T20:09:40;101035.41;;;22.99;50.66
14882;BME280;7533;51.278;12.588;2023-04-09T20:14:45;101039.25;;;22.94;50.63
14882;BME280;7533;51.278;12.588;2023-04-09T20:19:49;101042.75;;;22.96;50.65
14882;BME280;7533;51.278;12.588;2023-04-09T20:24:52;101044.34;;;22.99;50.72
14882;BME280;7533;51.278;12.588;2023-04-09T20:29:57;101052.75;;;23.09;50.51
14882;BME280;7533;51.278;12.588;2023-04-09T20:35:00;101058.34;;;23.06;50.58
14882;BME280;7533;51.278;12.588;2023-04-09T20:40:03;101057.00;;;23.13;50.46
14882;BME280;7533;51.278;12.588;2023-04-09T20:45:08;101059.38;;;23.17;50.39
14882;BME280;7533;51.278;12.588;2023-04-09T20:50:12;101052.41;;;23.28;50.37
14882;BME280;7533;51.278;12.588;2023-04-09T20:55:15;101054.25;;;23.27;50.21
14882;BME280;7533;51.278;12.588;2023-04-09T21:00:19;101049.63;;;23.29;50.25
14882;BME280;7533;51.278;12.588;2023-04-09T21:05:22;101052.00;;;23.34;50.34
14882;BME280;7533;51.278;12.588;2023-04-09T21:10:25;101038.91;;;23.28;50.42
14882;BME280;7533;51.278;12.588;2023-04-09T21:15:29;101042.00;;;23.21;50.63
14882;BME280;7533;51.278;12.588;2023-04-09T21:20:31;101050.56;;;23.01;51.36
14882;BME280;7533;51.278;12.588;2023-04-09T21:25:34;101050.50;;;22.87;51.73
14882;BME280;7533;51.278;12.588;2023-04-09T21:30:38;101041.00;;;22.95;51.86
14882;BME280;7533;51.278;12.588;2023-04-09T21:35:41;101043.38;;;22.57;52.61
14882;BME280;7533;51.278;12.588;2023-04-09T21:40:44;101033.75;;;22.67;52.77
14882;BME280;7533;51.278;12.588;2023-04-09T21:45:49;101036.53;;;22.66;52.50
14882;BME280;7533;51.278;12.588;2023-04-09T21:50:51;101037.53;;;22.93;52.26
14882;BME280;7533;51.278;12.588;2023-04-09T21:55:54;101035.97;;;22.89;52.42
14882;BME280;7533;51.278;12.588;2023-04-09T22:00:58;101044.06;;;22.75;53.00
14882;BME280;7533;51.278;12.588;2023-04-09T22:06:01;101043.16;;;22.60;53.29
14882;BME280;7533;51.278;12.588;2023-04-09T22:11:04;101054.25;;;22.56;53.38
14882;BME280;7533;51.278;12.588;2023-04-09T22:16:09;101048.56;;;22.46;53.57
14882;BME280;7533;51.278;12.588;2023-04-09T22:21:13;101038.22;;;22.38;53.79
14882;BME280;7533;51.278;12.588;2023-04-09T22:26:16;101044.78;;;22.34;53.93
14882;BME280;7533;51.278;12.588;2023-04-09T22:31:20;101040.00;;;22.54;53.72
14882;BME280;7533;51.278;12.588;2023-04-09T22:36:23;101035.75;;;22.64;53.62
14882;BME280;7533;51.278;12.588;2023-04-09T22:41:27;101038.00;;;22.86;53.55
14882;BME280;7533;51.278;12.588;2023-04-09T22:46:31;101041.94;;;23.09;53.38
14882;BME280;7533;51.278;12.588;2023-04-09T22:51:35;101037.78;;;23.17;53.24
14882;BME280;7533;51.278;12.588;2023-04-09T22:56:41;101050.13;;;23.21;53.28
14882;BME280;7533;51.278;12.588;2023-04-09T23:01:46;101056.09;;;23.27;53.18
14882;BME280;7533;51.278;12.588;2023-04-09T23:06:49;101049.63;;;23.29;53.14
14882;BME280;7533;51.278;12.588;2023-04-09T23:11:52;101042.19;;;23.33;53.19
14882;BME280;7533;51.278;12.588;2023-04-09T23:16:56;101031.94;;;23.38;53.22
14882;BME280;7533;51.278;12.588;2023-04-09T23:21:59;101033.59;;;23.40;53.25
14882;BME280;7533;51.278;12.588;2023-04-09T23:27:02;101038.09;;;23.40;53.37
14882;BME280;7533;51.278;12.588;2023-04-09T23:32:06;101021.59;;;23.44;53.40
14882;BME280;7533;51.278;12.588;2023-04-09T23:37:09;101036.53;;;23.50;53.32
14882;BME280;7533;51.278;12.588;2023-04-09T23:42:12;101027.47;;;23.51;53.34
14882;BME280;7533;51.278;12.588;2023-04-09T23:47:16;101025.94;;;23.47;53.45
14882;BME280;7533;51.278;12.588;2023-04-09T23:52:18;101028.03;;;23.56;53.46
14882;BME280;7533;51.278;12.588;2023-04-09T23:57:22;101028.81;;;23.58;53.44
